sensor_id;sensor_type;location;lat;lon;timestamp;temperature;humidity
70867;HTU21D;58487;53.474;49.470;2022-10-16T00:00:25;5.65;76.59
70867;HTU21D;58487;53.474;49.470;2022-10-16T00:02:56;5.64;76.75
70867;HTU21D;58487;53.474;49.470;2022-10-16T00:05:28;5.66;76.70
70867;HTU21D;58487;53.474;49.470;2022-10-16T00:07:59;5.70;76.65
70867;HTU21D;58487;53.474;49.470;2022-10-16T00:10:30;5.69;76.77
70867;HTU21D;58487;53.474;49.470;2022-10-16T00:13:03;5.72;76.61
70867;HTU21D;58487;53.474;49.470;2022-10-16T00:15:36;5.76;76.57
70867;HTU21D;58487;53.474;49.470;2022-10-16T00:18:07;5.74;76.72
70867;HTU21D;58487;53.474;49.470;2022-10-16T00:20:39;5.78;76.52
70867;HTU21D;58487;53.474;49.470;2022-10-16T00:23:10;5.81;76.34
70867;HTU21D;58487;53.474;49.470;2022-10-16T00:25:41;5.86;76.07
70867;HTU21D;58487;53.474;49.470;2022-10-16T00:28:13;5.90;75.84
70867;HTU21D;58487;53.474;49.470;2022-10-16T00:30:44;5.93;75.94
70867;HTU21D;58487;53.474;49.470;2022-10-16T00:33:15;5.90;76.32
70867;HTU21D;58487;53.474;49.470;2022-10-16T00:35:47;5.94;75.79
70867;HTU21D;58487;53.474;49.470;2022-10-16T00:38:19;5.91;76.38
70867;HTU21D;58487;53.474;49.470;2022-10-16T00:40:50;5.81;76.92
70867;HTU21D;58487;53.474;49.470;2022-10-16T00:43:35;5.65;77.96
70867;HTU21D;58487;53.474;49.470;2022-10-16T00:46:17;5.61;78.26
70867;HTU21D;58487;53.474;49.470;2022-10-16T00:51:35;5.68;77.51
70867;HTU21D;58487;53.474;49.470;2022-10-16T00:54:14;5.65;77.85
70867;HTU21D;58487;53.474;49.470;2022-10-16T00:56:46;5.67;77.44
70867;HTU21D;58487;53.474;49.470;2022-10-16T00:59:25;5.71;77.39
70867;HTU21D;58487;53.474;49.470;2022-10-16T01:01:57;5.79;76.94
70867;HTU21D;58487;53.474;49.470;2022-10-16T01:04:41;5.84;76.47
70867;HTU21D;58487;53.474;49.470;2022-10-16T01:13:27;5.91;76.27
70867;HTU21D;58487;53.474;49.470;2022-10-16T01:16:12;5.89;76.19
70867;HTU21D;58487;53.474;49.470;2022-10-16T01:18:56;5.83;76.57
70867;HTU21D;58487;53.474;49.470;2022-10-16T01:21:33;5.87;76.61
70867;HTU21D;58487;53.474;49.470;2022-10-16T01:27:25;5.83;77.01
70867;HTU21D;58487;53.474;49.470;2022-10-16T01:35:39;5.69;77.60
70867;HTU21D;58487;53.474;49.470;2022-10-16T01:38:20;5.76;77.56
70867;HTU21D;58487;53.474;49.470;2022-10-16T01:40:58;5.65;78.23
70867;HTU21D;58487;53.474;49.470;2022-10-16T01:43:36;5.68;77.93
70867;HTU21D;58487;53.474;49.470;2022-10-16T01:46:10;5.62;78.24
70867;HTU21D;58487;53.474;49.470;2022-10-16T01:48:41;5.63;78.22
70867;HTU21D;58487;53.474;49.470;2022-10-16T01:51:14;5.68;77.88
70867;HTU21D;58487;53.474;49.470;2022-10-16T01:53:49;5.64;78.21
70867;HTU21D;58487;53.474;49.470;2022-10-16T01:56:24;5.62;78.08
70867;HTU21D;58487;53.474;49.470;2022-10-16T01:59:04;5.64;78.12
70867;HTU21D;58487;53.474;49.470;2022-10-16T02:01:39;5.65;78.03
70867;HTU21D;58487;53.474;49.470;2022-10-16T02:04:29;5.63;78.26
70867;HTU21D;58487;53.474;49.470;2022-10-16T02:07:02;5.61;78.35
70867;HTU21D;58487;53.474;49.470;2022-10-16T02:09:34;5.59;78.59
70867;HTU21D;58487;53.474;49.470;2022-10-16T02:12:11;5.62;78.49
70867;HTU21D;58487;53.474;49.470;2022-10-16T02:14:45;5.67;77.95
70867;HTU21D;58487;53.474;49.470;2022-10-16T02:17:20;5.66;78.05
70867;HTU21D;58487;53.474;49.470;2022-10-16T02:19:54;5.66;78.11
70867;HTU21D;58487;53.474;49.470;2022-10-16T02:22:29;5.60;78.30
70867;HTU21D;58487;53.474;49.470;2022-10-16T02:25:09;5.56;78.24
70867;HTU21D;58487;53.474;49.470;2022-10-16T02:30:29;5.53;79.00
70867;HTU21D;58487;53.474;49.470;2022-10-16T02:33:02;5.49;79.01
70867;HTU21D;58487;53.474;49.470;2022-10-16T02:35:35;5.56;78.86
70867;HTU21D;58487;53.474;49.470;2022-10-16T02:38:08;5.50;79.06
70867;HTU21D;58487;53.474;49.470;2022-10-16T02:40:40;5.54;78.95
70867;HTU21D;58487;53.474;49.470;2022-10-16T02:43:12;5.53;78.97
70867;HTU21D;58487;53.474;49.470;2022-10-16T02:45:44;5.54;79.00
70867;HTU21D;58487;53.474;49.470;2022-10-16T02:48:15;5.55;78.89
70867;HTU21D;58487;53.474;49.470;2022-10-16T02:50:46;5.61;78.71
70867;HTU21D;58487;53.474;49.470;2022-10-16T02:53:18;5.65;78.49
70867;HTU21D;58487;53.474;49.470;2022-10-16T02:55:49;5.67;78.12
70867;HTU21D;58487;53.474;49.470;2022-10-16T02:58:20;5.61;78.31
70867;HTU21D;58487;53.474;49.470;2022-10-16T03:00:52;5.60;78.24
70867;HTU21D;58487;53.474;49.470;2022-10-16T03:03:23;5.56;78.41
70867;HTU21D;58487;53.474;49.470;2022-10-16T03:05:54;5.65;77.92
70867;HTU21D;58487;53.474;49.470;2022-10-16T03:08:26;5.61;78.08
70867;HTU21D;58487;53.474;49.470;2022-10-16T03:10:57;5.54;78.50
70867;HTU21D;58487;53.474;49.470;2022-10-16T03:13:28;5.59;78.53
70867;HTU21D;58487;53.474;49.470;2022-10-16T03:15:59;5.53;78.69
70867;HTU21D;58487;53.474;49.470;2022-10-16T03:18:31;5.46;79.27
70867;HTU21D;58487;53.474;49.470;2022-10-16T03:21:02;5.48;79.13
70867;HTU21D;58487;53.474;49.470;2022-10-16T03:23:34;5.62;78.72
70867;HTU21D;58487;53.474;49.470;2022-10-16T03:26:05;5.62;78.73
70867;HTU21D;58487;53.474;49.470;2022-10-16T03:28:36;5.70;78.39
70867;HTU21D;58487;53.474;49.470;2022-10-16T03:31:07;5.80;78.10
70867;HTU21D;58487;53.474;49.470;2022-10-16T03:33:39;5.87;78.55
70867;HTU21D;58487;53.474;49.470;2022-10-16T03:36:10;5.95;78.52
70867;HTU21D;58487;53.474;49.470;2022-10-16T03:38:41;6.02;79.21
70867;HTU21D;58487;53.474;49.470;2022-10-16T03:41:13;6.10;79.23
70867;HTU21D;58487;53.474;49.470;2022-10-16T03:43:44;6.15;78.73
70867;HTU21D;58487;53.474;49.470;2022-10-16T03:46:15;6.23;77.56
70867;HTU21D;58487;53.474;49.470;2022-10-16T03:48:46;6.28;76.98
70867;HTU21D;58487;53.474;49.470;2022-10-16T03:51:18;6.23;76.97
70867;HTU21D;58487;53.474;49.470;2022-10-16T03:53:49;6.27;77.51
70867;HTU21D;58487;53.474;49.470;2022-10-16T03:56:20;6.25;76.86
70867;HTU21D;58487;53.474;49.470;2022-10-16T03:58:51;6.28;77.82
70867;HTU21D;58487;53.474;49.470;2022-10-16T04:01:23;6.33;79.20
70867;HTU21D;58487;53.474;49.470;2022-10-16T04:03:54;6.37;77.50
70867;HTU21D;58487;53.474;49.470;2022-10-16T04:06:25;6.39;77.78
70867;HTU21D;58487;53.474;49.470;2022-10-16T04:08:57;6.43;77.16
70867;HTU21D;58487;53.474;49.470;2022-10-16T04:11:28;6.43;76.82
70867;HTU21D;58487;53.474;49.470;2022-10-16T04:13:59;6.41;76.59
70867;HTU21D;58487;53.474;49.470;2022-10-16T04:16:31;6.40;76.87
70867;HTU21D;58487;53.474;49.470;2022-10-16T04:19:02;6.45;76.64
70867;HTU21D;58487;53.474;49.470;2022-10-16T04:21:33;6.44;75.92
70867;HTU21D;58487;53.474;49.470;2022-10-16T04:24:05;6.44;76.21
70867;HTU21D;58487;53.474;49.470;2022-10-16T04:26:36;6.39;76.01
70867;HTU21D;58487;53.474;49.470;2022-10-16T04:29:07;6.36;75.98
70867;HTU21D;58487;53.474;49.470;2022-10-16T04:31:38;6.35;75.74
70867;HTU21D;58487;53.474;49.470;2022-10-16T04:34:10;6.34;76.19
70867;HTU21D;58487;53.474;49.470;2022-10-16T04:36:41;6.25;76.18
70867;HTU21D;58487;53.474;49.470;2022-10-16T04:39:12;6.31;75.89
70867;HTU21D;58487;53.474;49.470;2022-10-16T04:41:43;6.36;76.01
70867;HTU21D;58487;53.474;49.470;2022-10-16T04:44:15;6.40;75.74
70867;HTU21D;58487;53.474;49.470;2022-10-16T04:46:46;6.42;75.67
70867;HTU21D;58487;53.474;49.470;2022-10-16T04:49:17;6.41;75.47
70867;HTU21D;58487;53.474;49.470;2022-10-16T04:51:49;6.33;75.60
70867;HTU21D;58487;53.474;49.470;2022-10-16T04:54:20;6.31;75.73
70867;HTU21D;58487;53.474;49.470;2022-10-16T04:56:51;6.27;75.74
70867;HTU21D;58487;53.474;49.470;2022-10-16T04:59:23;6.35;75.50
70867;HTU21D;58487;53.474;49.470;2022-10-16T05:01:55;6.34;75.60
70867;HTU21D;58487;53.474;49.470;2022-10-16T05:04:26;6.34;75.81
70867;HTU21D;58487;53.474;49.470;2022-10-16T05:06:57;6.39;75.42
70867;HTU21D;58487;53.474;49.470;2022-10-16T05:09:28;6.48;74.95
70867;HTU21D;58487;53.474;49.470;2022-10-16T05:12:00;6.49;75.03
70867;HTU21D;58487;53.474;49.470;2022-10-16T05:14:31;6.56;74.78
70867;HTU21D;58487;53.474;49.470;2022-10-16T05:17:02;6.58;74.57
70867;HTU21D;58487;53.474;49.470;2022-10-16T05:19:34;6.69;74.50
70867;HTU21D;58487;53.474;49.470;2022-10-16T05:22:05;6.82;73.99
70867;HTU21D;58487;53.474;49.470;2022-10-16T05:24:36;6.94;73.54
70867;HTU21D;58487;53.474;49.470;2022-10-16T05:27:08;7.11;73.07
70867;HTU21D;58487;53.474;49.470;2022-10-16T05:29:39;7.19;72.69
70867;HTU21D;58487;53.474;49.470;2022-10-16T05:32:11;7.16;72.41
70867;HTU21D;58487;53.474;49.470;2022-10-16T05:34:43;7.19;72.19
70867;HTU21D;58487;53.474;49.470;2022-10-16T05:37:14;7.22;72.46
70867;HTU21D;58487;53.474;49.470;2022-10-16T05:39:45;7.26;72.16
70867;HTU21D;58487;53.474;49.470;2022-10-16T05:42:17;7.49;71.54
70867;HTU21D;58487;53.474;49.470;2022-10-16T05:44:48;7.48;71.22
70867;HTU21D;58487;53.474;49.470;2022-10-16T05:47:19;7.49;71.53
70867;HTU21D;58487;53.474;49.470;2022-10-16T05:49:51;7.60;69.49
70867;HTU21D;58487;53.474;49.470;2022-10-16T05:52:23;7.84;69.17
70867;HTU21D;58487;53.474;49.470;2022-10-16T05:54:54;7.87;68.73
70867;HTU21D;58487;53.474;49.470;2022-10-16T05:57:26;7.88;69.11
70867;HTU21D;58487;53.474;49.470;2022-10-16T05:59:57;8.05;68.24
70867;HTU21D;58487;53.474;49.470;2022-10-16T06:02:29;8.04;68.19
70867;HTU21D;58487;53.474;49.470;2022-10-16T06:05:00;8.00;67.52
70867;HTU21D;58487;53.474;49.470;2022-10-16T06:07:35;7.99;66.99
70867;HTU21D;58487;53.474;49.470;2022-10-16T06:10:07;8.05;67.09
70867;HTU21D;58487;53.474;49.470;2022-10-16T06:12:38;8.14;66.58
70867;HTU21D;58487;53.474;49.470;2022-10-16T06:15:10;8.16;66.22
70867;HTU21D;58487;53.474;49.470;2022-10-16T06:17:41;8.09;66.27
70867;HTU21D;58487;53.474;49.470;2022-10-16T06:20:12;8.18;65.98
70867;HTU21D;58487;53.474;49.470;2022-10-16T06:22:43;8.32;65.84
70867;HTU21D;58487;53.474;49.470;2022-10-16T06:25:15;8.32;65.18
70867;HTU21D;58487;53.474;49.470;2022-10-16T06:27:46;8.43;65.37
70867;HTU21D;58487;53.474;49.470;2022-10-16T06:30:17;8.26;65.58
70867;HTU21D;58487;53.474;49.470;2022-10-16T06:32:49;8.19;65.63
70867;HTU21D;58487;53.474;49.470;2022-10-16T06:35:20;8.24;65.28
70867;HTU21D;58487;53.474;49.470;2022-10-16T06:37:55;8.45;65.11
70867;HTU21D;58487;53.474;49.470;2022-10-16T06:40:27;8.55;64.53
70867;HTU21D;58487;53.474;49.470;2022-10-16T06:42:58;8.77;64.22
70867;HTU21D;58487;53.474;49.470;2022-10-16T06:45:29;8.95;65.12
70867;HTU21D;58487;53.474;49.470;2022-10-16T06:48:01;8.85;65.30
70867;HTU21D;58487;53.474;49.470;2022-10-16T06:50:32;8.68;65.05
70867;HTU21D;58487;53.474;49.470;2022-10-16T06:53:03;8.77;65.75
70867;HTU21D;58487;53.474;49.470;2022-10-16T06:55:35;8.81;65.18
70867;HTU21D;58487;53.474;49.470;2022-10-16T06:58:06;8.89;66.69
70867;HTU21D;58487;53.474;49.470;2022-10-16T07:00:37;8.68;67.85
70867;HTU21D;58487;53.474;49.470;2022-10-16T07:03:09;8.64;68.50
70867;HTU21D;58487;53.474;49.470;2022-10-16T07:05:41;8.64;69.01
70867;HTU21D;58487;53.474;49.470;2022-10-16T07:08:13;8.64;69.67
70867;HTU21D;58487;53.474;49.470;2022-10-16T07:10:44;8.64;69.95
70867;HTU21D;58487;53.474;49.470;2022-10-16T07:13:16;8.66;70.55
70867;HTU21D;58487;53.474;49.470;2022-10-16T07:15:47;8.71;70.07
70867;HTU21D;58487;53.474;49.470;2022-10-16T07:18:18;8.71;70.35
70867;HTU21D;58487;53.474;49.470;2022-10-16T07:20:50;8.66;69.80
70867;HTU21D;58487;53.474;49.470;2022-10-16T07:23:21;8.75;70.84
70867;HTU21D;58487;53.474;49.470;2022-10-16T07:25:55;8.72;70.00
70867;HTU21D;58487;53.474;49.470;2022-10-16T07:28:27;8.80;70.88
70867;HTU21D;58487;53.474;49.470;2022-10-16T07:31:04;8.75;69.06
70867;HTU21D;58487;53.474;49.470;2022-10-16T07:33:35;8.73;71.95
70867;HTU21D;58487;53.474;49.470;2022-10-16T07:36:07;8.70;69.84
70867;HTU21D;58487;53.474;49.470;2022-10-16T07:38:38;8.66;69.97
70867;HTU21D;58487;53.474;49.470;2022-10-16T07:41:13;8.76;71.93
70867;HTU21D;58487;53.474;49.470;2022-10-16T07:43:49;8.95;68.13
70867;HTU21D;58487;53.474;49.470;2022-10-16T07:46:22;9.14;57.47
70867;HTU21D;58487;53.474;49.470;2022-10-16T07:48:53;9.22;66.83
70867;HTU21D;58487;53.474;49.470;2022-10-16T07:51:25;9.21;61.99
70867;HTU21D;58487;53.474;49.470;2022-10-16T07:53:57;9.36;56.79
70867;HTU21D;58487;53.474;49.470;2022-10-16T07:56:30;9.41;62.93
70867;HTU21D;58487;53.474;49.470;2022-10-16T07:59:01;9.53;68.01
70867;HTU21D;58487;53.474;49.470;2022-10-16T08:01:33;9.68;64.67
70867;HTU21D;58487;53.474;49.470;2022-10-16T08:04:05;9.86;65.06
70867;HTU21D;58487;53.474;49.470;2022-10-16T08:06:38;9.76;66.43
70867;HTU21D;58487;53.474;49.470;2022-10-16T08:09:09;9.83;68.43
70867;HTU21D;58487;53.474;49.470;2022-10-16T08:11:41;9.93;63.94
70867;HTU21D;58487;53.474;49.470;2022-10-16T08:14:15;10.14;60.17
70867;HTU21D;58487;53.474;49.470;2022-10-16T08:16:47;10.13;65.33
70867;HTU21D;58487;53.474;49.470;2022-10-16T08:19:19;10.18;55.27
70867;HTU21D;58487;53.474;49.470;2022-10-16T08:21:50;10.06;52.61
70867;HTU21D;58487;53.474;49.470;2022-10-16T08:24:21;10.04;52.42
70867;HTU21D;58487;53.474;49.470;2022-10-16T08:26:56;10.11;52.53
70867;HTU21D;58487;53.474;49.470;2022-10-16T08:29:27;10.04;63.39
70867;HTU21D;58487;53.474;49.470;2022-10-16T08:31:58;9.88;64.01
70867;HTU21D;58487;53.474;49.470;2022-10-16T08:34:30;10.00;61.16
70867;HTU21D;58487;53.474;49.470;2022-10-16T08:37:01;9.94;61.26
70867;HTU21D;58487;53.474;49.470;2022-10-16T08:39:33;10.05;62.01
70867;HTU21D;58487;53.474;49.470;2022-10-16T08:42:15;9.96;60.67
70867;HTU21D;58487;53.474;49.470;2022-10-16T08:50:42;10.08;62.80
70867;HTU21D;58487;53.474;49.470;2022-10-16T08:53:28;10.09;60.06
70867;HTU21D;58487;53.474;49.470;2022-10-16T08:56:01;10.16;61.75
70867;HTU21D;58487;53.474;49.470;2022-10-16T08:58:32;10.26;61.85
70867;HTU21D;58487;53.474;49.470;2022-10-16T09:01:12;10.38;61.31
70867;HTU21D;58487;53.474;49.470;2022-10-16T09:06:45;10.77;54.39
70867;HTU21D;58487;53.474;49.470;2022-10-16T09:09:32;11.14;49.62
70867;HTU21D;58487;53.474;49.470;2022-10-16T09:12:16;11.56;54.33
70867;HTU21D;58487;53.474;49.470;2022-10-16T09:22:49;12.40;48.63
70867;HTU21D;58487;53.474;49.470;2022-10-16T09:25:21;12.07;45.57
70867;HTU21D;58487;53.474;49.470;2022-10-16T09:27:55;11.99;46.19
70867;HTU21D;58487;53.474;49.470;2022-10-16T09:30:29;12.38;47.31
70867;HTU21D;58487;53.474;49.470;2022-10-16T09:33:00;12.78;44.54
70867;HTU21D;58487;53.474;49.470;2022-10-16T09:38:30;13.91;42.46
70867;HTU21D;58487;53.474;49.470;2022-10-16T09:41:11;14.56;41.56
70867;HTU21D;58487;53.474;49.470;2022-10-16T09:43:59;14.19;40.30
70867;HTU21D;58487;53.474;49.470;2022-10-16T09:46:33;13.85;41.37
70867;HTU21D;58487;53.474;49.470;2022-10-16T09:49:25;13.63;40.62
70867;HTU21D;58487;53.474;49.470;2022-10-16T09:52:12;13.77;40.96
70867;HTU21D;58487;53.474;49.470;2022-10-16T09:54:58;13.55;41.44
70867;HTU21D;58487;53.474;49.470;2022-10-16T09:57:29;13.40;43.95
70867;HTU21D;58487;53.474;49.470;2022-10-16T10:00:08;12.64;44.56
70867;HTU21D;58487;53.474;49.470;2022-10-16T10:02:39;12.80;44.46
70867;HTU21D;58487;53.474;49.470;2022-10-16T10:05:20;13.10;42.51
70867;HTU21D;58487;53.474;49.470;2022-10-16T10:08:02;13.67;42.29
70867;HTU21D;58487;53.474;49.470;2022-10-16T10:10:42;13.51;41.58
70867;HTU21D;58487;53.474;49.470;2022-10-16T10:13:21;13.43;42.69
70867;HTU21D;58487;53.474;49.470;2022-10-16T10:15:54;13.83;43.17
70867;HTU21D;58487;53.474;49.470;2022-10-16T10:18:26;13.71;42.45
70867;HTU21D;58487;53.474;49.470;2022-10-16T10:20:59;13.51;42.57
70867;HTU21D;58487;53.474;49.470;2022-10-16T10:23:31;14.01;42.70
70867;HTU21D;58487;53.474;49.470;2022-10-16T10:32:30;15.52;38.20
70867;HTU21D;58487;53.474;49.470;2022-10-16T10:35:27;16.37;36.53
70867;HTU21D;58487;53.474;49.470;2022-10-16T10:47:41;15.37;37.94
70867;HTU21D;58487;53.474;49.470;2022-10-16T11:07:15;16.12;36.92
70867;HTU21D;58487;53.474;49.470;2022-10-16T11:09:52;16.25;35.93
70867;HTU21D;58487;53.474;49.470;2022-10-16T11:12:29;15.71;37.24
70867;HTU21D;58487;53.474;49.470;2022-10-16T11:15:11;15.88;35.46
70867;HTU21D;58487;53.474;49.470;2022-10-16T11:17:54;15.88;36.09
70867;HTU21D;58487;53.474;49.470;2022-10-16T11:20:32;15.99;36.26
70867;HTU21D;58487;53.474;49.470;2022-10-16T11:25:45;15.02;38.43
70867;HTU21D;58487;53.474;49.470;2022-10-16T11:28:24;14.69;38.01
70867;HTU21D;58487;53.474;49.470;2022-10-16T11:31:23;14.13;39.72
70867;HTU21D;58487;53.474;49.470;2022-10-16T11:34:05;14.96;38.19
70867;HTU21D;58487;53.474;49.470;2022-10-16T11:37:17;15.60;36.57
70867;HTU21D;58487;53.474;49.470;2022-10-16T11:39:40;15.76;36.27
70867;HTU21D;58487;53.474;49.470;2022-10-16T11:42:34;15.14;37.79
70867;HTU21D;58487;53.474;49.470;2022-10-16T11:45:33;15.03;37.63
70867;HTU21D;58487;53.474;49.470;2022-10-16T11:50:43;15.13;37.61
70867;HTU21D;58487;53.474;49.470;2022-10-16T11:56:18;13.55;41.13
70867;HTU21D;58487;53.474;49.470;2022-10-16T12:01:35;13.25;42.16
70867;HTU21D;58487;53.474;49.470;2022-10-16T12:04:26;14.22;39.88
70867;HTU21D;58487;53.474;49.470;2022-10-16T12:07:18;14.63;38.99
70867;HTU21D;58487;53.474;49.470;2022-10-16T12:09:52;14.05;40.07
70867;HTU21D;58487;53.474;49.470;2022-10-16T12:12:38;13.11;42.48
70867;HTU21D;58487;53.474;49.470;2022-10-16T12:15:20;12.64;43.43
70867;HTU21D;58487;53.474;49.470;2022-10-16T12:17:52;12.59;43.77
70867;HTU21D;58487;53.474;49.470;2022-10-16T12:20:31;13.14;42.55
70867;HTU21D;58487;53.474;49.470;2022-10-16T12:23:07;13.92;40.71
70867;HTU21D;58487;53.474;49.470;2022-10-16T12:25:55;14.68;39.00
70867;HTU21D;58487;53.474;49.470;2022-10-16T12:28:28;15.33;37.89
70867;HTU21D;58487;53.474;49.470;2022-10-16T12:31:05;15.37;37.14
70867;HTU21D;58487;53.474;49.470;2022-10-16T12:33:42;15.18;37.99
70867;HTU21D;58487;53.474;49.470;2022-10-16T12:36:30;15.51;36.82
70867;HTU21D;58487;53.474;49.470;2022-10-16T12:39:03;15.76;36.75
70867;HTU21D;58487;53.474;49.470;2022-10-16T12:41:36;16.33;35.75
70867;HTU21D;58487;53.474;49.470;2022-10-16T12:44:23;16.19;35.66
70867;HTU21D;58487;53.474;49.470;2022-10-16T12:46:55;16.95;35.24
70867;HTU21D;58487;53.474;49.470;2022-10-16T12:49:37;17.21;33.76
70867;HTU21D;58487;53.474;49.470;2022-10-16T12:55:00;16.31;35.70
70867;HTU21D;58487;53.474;49.470;2022-10-16T12:58:00;16.43;35.19
70867;HTU21D;58487;53.474;49.470;2022-10-16T13:00:53;15.88;36.72
70867;HTU21D;58487;53.474;49.470;2022-10-16T13:03:47;16.26;35.87
70867;HTU21D;58487;53.474;49.470;2022-10-16T13:18:04;15.62;37.79
70867;HTU21D;58487;53.474;49.470;2022-10-16T13:26:25;13.68;42.28
70867;HTU21D;58487;53.474;49.470;2022-10-16T13:29:00;13.21;43.65
70867;HTU21D;58487;53.474;49.470;2022-10-16T13:31:32;12.97;44.39
70867;HTU21D;58487;53.474;49.470;2022-10-16T13:34:05;12.87;44.83
70867;HTU21D;58487;53.474;49.470;2022-10-16T13:36:47;12.73;45.39
70867;HTU21D;58487;53.474;49.470;2022-10-16T13:39:27;12.58;45.48
70867;HTU21D;58487;53.474;49.470;2022-10-16T13:42:06;12.27;46.25
70867;HTU21D;58487;53.474;49.470;2022-10-16T13:44:46;12.02;47.28
70867;HTU21D;58487;53.474;49.470;2022-10-16T13:47:20;11.82;47.40
70867;HTU21D;58487;53.474;49.470;2022-10-16T13:52:32;11.68;47.86
70867;HTU21D;58487;53.474;49.470;2022-10-16T13:55:05;11.55;48.40
70867;HTU21D;58487;53.474;49.470;2022-10-16T13:57:41;11.41;48.65
70867;HTU21D;58487;53.474;49.470;2022-10-16T14:00:25;11.20;50.06
70867;HTU21D;58487;53.474;49.470;2022-10-16T14:03:13;11.13;50.27
70867;HTU21D;58487;53.474;49.470;2022-10-16T14:05:54;11.08;50.45
70867;HTU21D;58487;53.474;49.470;2022-10-16T14:08:28;11.05;50.56
70867;HTU21D;58487;53.474;49.470;2022-10-16T14:11:01;10.98;50.62
70867;HTU21D;58487;53.474;49.470;2022-10-16T14:13:51;10.94;51.59
70867;HTU21D;58487;53.474;49.470;2022-10-16T14:16:29;10.86;51.46
70867;HTU21D;58487;53.474;49.470;2022-10-16T14:19:05;10.80;52.19
70867;HTU21D;58487;53.474;49.470;2022-10-16T14:21:41;10.80;51.79
70867;HTU21D;58487;53.474;49.470;2022-10-16T14:24:21;10.75;52.15
70867;HTU21D;58487;53.474;49.470;2022-10-16T14:26:53;10.69;52.24
70867;HTU21D;58487;53.474;49.470;2022-10-16T14:29:29;10.65;52.66
70867;HTU21D;58487;53.474;49.470;2022-10-16T14:32:05;10.58;52.92
70867;HTU21D;58487;53.474;49.470;2022-10-16T14:34:38;10.62;52.81
70867;HTU21D;58487;53.474;49.470;2022-10-16T14:39:52;10.52;53.02
70867;HTU21D;58487;53.474;49.470;2022-10-16T14:42:25;10.53;53.27
70867;HTU21D;58487;53.474;49.470;2022-10-16T14:44:57;10.56;53.20
70867;HTU21D;58487;53.474;49.470;2022-10-16T14:47:31;10.51;53.39
70867;HTU21D;58487;53.474;49.470;2022-10-16T14:50:02;10.46;53.64
70867;HTU21D;58487;53.474;49.470;2022-10-16T14:52:34;10.48;53.67
70867;HTU21D;58487;53.474;49.470;2022-10-16T14:55:05;10.46;53.87
70867;HTU21D;58487;53.474;49.470;2022-10-16T14:57:38;10.41;53.76
70867;HTU21D;58487;53.474;49.470;2022-10-16T15:00:22;10.44;53.66
70867;HTU21D;58487;53.474;49.470;2022-10-16T15:02:54;10.39;53.61
70867;HTU21D;58487;53.474;49.470;2022-10-16T15:05:27;10.38;53.72
70867;HTU21D;58487;53.474;49.470;2022-10-16T15:07:58;10.40;53.72
70867;HTU21D;58487;53.474;49.470;2022-10-16T15:10:30;10.42;53.54
70867;HTU21D;58487;53.474;49.470;2022-10-16T15:13:02;10.42;53.51
70867;HTU21D;58487;53.474;49.470;2022-10-16T15:15:37;10.43;53.33
70867;HTU21D;58487;53.474;49.470;2022-10-16T15:18:09;10.42;53.30
70867;HTU21D;58487;53.474;49.470;2022-10-16T15:20:40;10.46;53.39
70867;HTU21D;58487;53.474;49.470;2022-10-16T15:23:20;10.49;53.56
70867;HTU21D;58487;53.474;49.470;2022-10-16T15:25:54;10.50;53.46
70867;HTU21D;58487;53.474;49.470;2022-10-16T15:28:25;10.44;53.36
70867;HTU21D;58487;53.474;49.470;2022-10-16T15:30:57;10.36;53.42
70867;HTU21D;58487;53.474;49.470;2022-10-16T15:33:28;10.29;53.60
70867;HTU21D;58487;53.474;49.470;2022-10-16T15:36:04;10.26;53.94
70867;HTU21D;58487;53.474;49.470;2022-10-16T15:38:35;10.25;53.97
70867;HTU21D;58487;53.474;49.470;2022-10-16T15:41:07;10.15;54.59
70867;HTU21D;58487;53.474;49.470;2022-10-16T15:43:38;10.09;54.88
70867;HTU21D;58487;53.474;49.470;2022-10-16T15:46:11;9.98;56.04
70867;HTU21D;58487;53.474;49.470;2022-10-16T15:48:45;9.91;55.53
70867;HTU21D;58487;53.474;49.470;2022-10-16T15:51:18;9.91;55.64
70867;HTU21D;58487;53.474;49.470;2022-10-16T15:53:49;9.91;55.49
70867;HTU21D;58487;53.474;49.470;2022-10-16T15:56:22;9.88;56.29
70867;HTU21D;58487;53.474;49.470;2022-10-16T15:58:54;10.09;54.36
70867;HTU21D;58487;53.474;49.470;2022-10-16T16:01:26;10.24;53.61
70867;HTU21D;58487;53.474;49.470;2022-10-16T16:03:59;10.35;53.44
70867;HTU21D;58487;53.474;49.470;2022-10-16T16:06:30;10.25;54.32
70867;HTU21D;58487;53.474;49.470;2022-10-16T16:09:02;9.98;58.51
70867;HTU21D;58487;53.474;49.470;2022-10-16T16:11:33;9.91;59.35
70867;HTU21D;58487;53.474;49.470;2022-10-16T16:14:13;9.81;60.54
70867;HTU21D;58487;53.474;49.470;2022-10-16T16:16:44;9.83;60.82
70867;HTU21D;58487;53.474;49.470;2022-10-16T16:19:16;9.77;61.18
70867;HTU21D;58487;53.474;49.470;2022-10-16T16:21:51;9.62;61.40
70867;HTU21D;58487;53.474;49.470;2022-10-16T16:24:23;9.49;61.92
70867;HTU21D;58487;53.474;49.470;2022-10-16T16:26:54;9.47;61.67
70867;HTU21D;58487;53.474;49.470;2022-10-16T16:29:26;9.39;61.69
70867;HTU21D;58487;53.474;49.470;2022-10-16T16:31:57;9.45;61.33
70867;HTU21D;58487;53.474;49.470;2022-10-16T16:34:30;9.46;61.34
70867;HTU21D;58487;53.474;49.470;2022-10-16T16:37:01;9.52;61.51
70867;HTU21D;58487;53.474;49.470;2022-10-16T16:39:32;9.54;61.31
70867;HTU21D;58487;53.474;49.470;2022-10-16T16:42:04;9.60;61.31
70867;HTU21D;58487;53.474;49.470;2022-10-16T16:44:37;9.57;61.57
70867;HTU21D;58487;53.474;49.470;2022-10-16T16:47:09;9.54;61.50
70867;HTU21D;58487;53.474;49.470;2022-10-16T16:49:40;9.53;61.47
70867;HTU21D;58487;53.474;49.470;2022-10-16T16:52:12;9.48;61.96
70867;HTU21D;58487;53.474;49.470;2022-10-16T16:54:44;9.42;62.30
70867;HTU21D;58487;53.474;49.470;2022-10-16T16:57:22;9.41;63.13
70867;HTU21D;58487;53.474;49.470;2022-10-16T16:59:53;9.40;64.10
70867;HTU21D;58487;53.474;49.470;2022-10-16T17:02:24;9.38;63.73
70867;HTU21D;58487;53.474;49.470;2022-10-16T17:04:56;9.33;64.45
70867;HTU21D;58487;53.474;49.470;2022-10-16T17:07:31;9.36;64.52
70867;HTU21D;58487;53.474;49.470;2022-10-16T17:10:03;9.32;64.23
70867;HTU21D;58487;53.474;49.470;2022-10-16T17:12:35;9.32;64.25
70867;HTU21D;58487;53.474;49.470;2022-10-16T17:15:06;9.22;64.48
70867;HTU21D;58487;53.474;49.470;2022-10-16T17:17:38;9.14;65.42
70867;HTU21D;58487;53.474;49.470;2022-10-16T17:20:10;9.01;65.24
70867;HTU21D;58487;53.474;49.470;2022-10-16T17:22:41;8.80;66.15
70867;HTU21D;58487;53.474;49.470;2022-10-16T17:25:12;8.61;67.44
70867;HTU21D;58487;53.474;49.470;2022-10-16T17:27:44;8.55;67.59
70867;HTU21D;58487;53.474;49.470;2022-10-16T17:30:15;8.52;68.00
70867;HTU21D;58487;53.474;49.470;2022-10-16T17:32:47;8.56;67.75
70867;HTU21D;58487;53.474;49.470;2022-10-16T17:35:18;8.58;67.72
70867;HTU21D;58487;53.474;49.470;2022-10-16T17:37:51;8.45;68.99
70867;HTU21D;58487;53.474;49.470;2022-10-16T17:40:24;8.52;67.59
70867;HTU21D;58487;53.474;49.470;2022-10-16T17:42:56;8.62;68.00